Time;durP1;ratioP1;P1;durP2;ratioP2;P2;SDS_P1;SDS_P2;PMS_P1;PMS_P2;Temp;Humidity;BMP_temperature;BMP_pressure;BME280_temperature;BME280_humidity;BME280_pressure;Samples;Min_cycle;Max_cycle;Signal;HPM_P1;HPM_P2
2024/02/28 00:01:50;;;;;;;10.50;5.10;;;;;;;-144.57;100.00;62443.72;5049010;28;20140;-64
2024/02/28 00:04:16;;;;;;;10.50;5.82;;;;;;;-144.57;100.00;62443.72;5032698;28;20132;-62
2024/02/28 00:06:42;;;;;;;14.07;5.30;;;;;;;-144.57;100.00;62443.72;5016157;28;20059;-64
2024/02/28 00:09:08;;;;;;;11.00;5.70;;;;;;;-144.57;100.00;62443.72;5033460;28;20530;-64
2024/02/28 00:11:33;;;;;;;11.43;5.88;;;;;;;-144.57;100.00;62443.72;5049081;28;20045;-64
2024/02/28 00:14:02;;;;;;;14.10;5.50;;;;;;;-144.57;100.00;62443.72;5032534;28;20099;-62
2024/02/28 00:16:28;;;;;;;11.40;5.63;;;;;;;-144.57;100.00;62443.72;5015863;28;20550;-63
2024/02/28 00:18:54;;;;;;;11.23;5.80;;;;;;;-144.57;100.00;62443.72;5033732;28;20144;-63
2024/02/28 00:21:19;;;;;;;14.25;5.03;;;;;;;-144.57;100.00;62443.72;5033425;28;20490;-63
2024/02/28 00:23:45;;;;;;;11.65;5.25;;;;;;;-144.57;100.00;62443.72;5033744;28;20380;-63
2024/02/28 00:26:14;;;;;;;11.77;5.30;;;;;;;-144.57;100.00;62443.72;5031991;28;20042;-65
2024/02/28 00:28:39;;;;;;;9.88;4.88;;;;;;;-144.57;100.00;62443.72;5048828;28;20050;-63
2024/02/28 00:31:05;;;;;;;12.70;5.22;;;;;;;-144.57;100.00;62443.72;5032989;28;20098;-65
2024/02/28 00:33:30;;;;;;;13.68;6.10;;;;;;;-144.57;100.00;62443.72;5033497;28;20049;-62
2024/02/28 00:35:56;;;;;;;11.93;5.25;;;;;;;-144.57;100.00;62443.72;5033342;28;20049;-62
2024/02/28 00:38:22;;;;;;;16.83;5.45;;;;;;;-144.57;100.00;62443.72;5031842;28;20302;-61
2024/02/28 00:40:47;;;;;;;12.02;5.65;;;;;;;-144.57;100.00;62443.72;5033123;28;20495;-65
2024/02/28 00:43:13;;;;;;;11.50;5.53;;;;;;;-144.57;100.00;62443.72;5048409;28;20049;-62
2024/02/28 00:45:39;;;;;;;9.25;5.30;;;;;;;-144.57;100.00;62443.72;5031798;28;20546;-63
2024/02/28 00:48:05;;;;;;;11.93;5.85;;;;;;;-144.57;100.00;62443.72;5033060;28;20091;-62
2024/02/28 00:50:30;;;;;;;10.48;4.90;;;;;;;-144.57;100.00;62443.72;5032922;28;20046;-63
2024/02/28 00:52:56;;;;;;;11.50;5.20;;;;;;;-144.57;100.00;62443.72;5033058;28;20056;-62
2024/02/28 00:55:22;;;;;;;11.18;5.20;;;;;;;-144.57;100.00;62443.72;5047885;28;20045;-65
2024/02/28 00:57:48;;;;;;;11.98;5.55;;;;;;;-144.57;100.00;62443.72;5015138;28;20110;-63
2024/02/28 01:00:13;;;;;;;13.20;5.88;;;;;;;-144.57;100.00;62443.72;5031456;28;20123;-63
2024/02/28 01:02:41;;;;;;;10.02;5.60;;;;;;;-144.57;100.00;62443.72;5032806;28;20572;-63
2024/02/28 01:05:07;;;;;;;12.20;5.25;;;;;;;-144.57;100.00;62443.72;5031299;28;20570;-63
2024/02/28 01:07:33;;;;;;;10.85;5.40;;;;;;;-144.57;100.00;62443.72;5032108;28;20136;-61
2024/02/28 01:09:59;;;;;;;11.98;6.07;;;;;;;-144.57;100.00;62443.72;5032513;28;20144;-62
2024/02/28 01:12:24;;;;;;;10.15;5.20;;;;;;;-144.57;100.00;62443.72;5032531;28;20049;-63
2024/02/28 01:14:50;;;;;;;15.88;6.05;;;;;;;-144.57;100.00;62443.72;5032599;28;20053;-63
2024/02/28 01:17:16;;;;;;;17.40;5.93;;;;;;;-144.57;100.00;62443.72;5032644;28;20053;-62
2024/02/28 01:19:41;;;;;;;13.95;6.32;;;;;;;-144.57;100.00;62443.72;5032448;28;20084;-62
2024/02/28 01:22:08;;;;;;;15.05;6.15;;;;;;;-144.57;100.00;62443.72;5032441;28;20085;-63
2024/02/28 01:24:35;;;;;;;12.35;5.53;;;;;;;-144.57;100.00;62443.72;5031042;28;20499;-64
2024/02/28 01:27:01;;;;;;;10.65;5.60;;;;;;;-144.57;100.00;62443.72;5030988;28;20049;-62
2024/02/28 01:29:26;;;;;;;12.75;5.72;;;;;;;-144.57;100.00;62443.72;5032796;28;20531;-64
2024/02/28 01:31:52;;;;;;;10.55;5.00;;;;;;;-144.57;100.00;62443.72;5031127;28;20046;-64
2024/02/28 01:34:18;;;;;;;11.93;4.97;;;;;;;-144.57;100.00;62443.72;5032883;28;20064;-64
2024/02/28 01:36:44;;;;;;;12.90;5.97;;;;;;;-144.57;100.00;62443.72;5032846;28;20418;-62
2024/02/28 01:39:09;;;;;;;11.70;5.65;;;;;;;-144.57;100.00;62443.72;5047520;28;20045;-62
2024/02/28 01:41:35;;;;;;;11.70;5.55;;;;;;;-144.57;100.00;62443.72;5032164;28;20506;-63
2024/02/28 01:44:00;;;;;;;13.18;5.80;;;;;;;-144.57;100.00;62443.72;5032946;28;20046;-63
2024/02/28 01:46:28;;;;;;;12.45;5.57;;;;;;;-144.57;100.00;62443.72;5032545;28;20052;-65
2024/02/28 01:48:55;;;;;;;11.90;5.72;;;;;;;-144.57;100.00;62443.72;5033516;28;20037;-63
2024/02/28 01:51:25;;;;;;;18.25;6.68;;;;;;;-144.57;100.00;62443.72;5032656;28;20053;-64
2024/02/28 01:53:52;;;;;;;9.13;5.20;;;;;;;-144.57;100.00;62443.72;5048383;28;20072;-63
2024/02/28 01:56:18;;;;;;;11.82;5.85;;;;;;;-144.57;100.00;62443.72;5048186;28;20132;-63
2024/02/28 01:58:49;;;;;;;16.15;6.13;;;;;;;-144.57;100.00;62443.72;5032785;28;20486;-63
2024/02/28 02:01:15;;;;;;;17.08;6.15;;;;;;;-144.57;100.00;62443.72;5047594;28;20131;-63
2024/02/28 02:03:46;;;;;;;11.23;5.95;;;;;;;-144.57;100.00;62443.72;5030494;28;20503;-63
2024/02/28 02:06:12;;;;;;;10.55;5.93;;;;;;;-144.57;100.00;62443.72;5031718;28;20141;-62
2024/02/28 02:08:38;;;;;;;13.10;6.50;;;;;;;-144.57;100.00;62443.72;5031434;28;20148;-62
2024/02/28 02:11:06;;;;;;;9.93;5.75;;;;;;;-144.57;100.00;62443.72;5030367;28;20139;-61
2024/02/28 02:13:32;;;;;;;10.05;5.85;;;;;;;-144.57;100.00;62443.72;5031818;28;20049;-63
2024/02/28 02:15:57;;;;;;;10.50;5.75;;;;;;;-144.57;100.00;62443.72;5031620;28;20127;-63
2024/02/28 02:18:23;;;;;;;12.45;6.18;;;;;;;-144.57;100.00;62443.72;5031582;28;20045;-62
2024/02/28 02:20:56;;;;;;;16.10;5.95;;;;;;;-144.57;100.00;62443.72;5031378;28;20041;-65
2024/02/28 02:23:22;;;;;;;11.55;5.75;;;;;;;-144.57;100.00;62443.72;5031638;28;20502;-63
2024/02/28 02:25:48;;;;;;;15.23;5.80;;;;;;;-144.57;100.00;62443.72;5031570;28;20049;-66
2024/02/28 02:28:14;;;;;;;12.75;6.13;;;;;;;-144.57;100.00;62443.72;5031689;28;20133;-62
2024/02/28 02:30:45;;;;;;;15.70;6.88;;;;;;;-144.57;100.00;62443.72;5029945;28;20043;-63
2024/02/28 02:33:10;;;;;;;13.32;6.00;;;;;;;-144.57;100.00;62443.72;5031312;28;20406;-63
2024/02/28 02:35:36;;;;;;;15.73;6.10;;;;;;;-144.57;100.00;62443.72;5029943;28;20037;-62
2024/02/28 02:38:02;;;;;;;10.07;5.57;;;;;;;-144.57;100.00;62443.72;5046459;28;20141;-63
2024/02/28 02:40:28;;;;;;;13.40;6.28;;;;;;;-144.57;100.00;62443.72;5031033;28;20132;-63
2024/02/28 02:42:53;;;;;;;11.32;5.43;;;;;;;-144.57;100.00;62443.72;5031115;28;20069;-62
2024/02/28 02:45:19;;;;;;;13.23;5.97;;;;;;;-144.57;100.00;62443.72;5030925;28;20498;-64
2024/02/28 02:47:45;;;;;;;16.00;5.70;;;;;;;-144.57;100.00;62443.72;5031141;28;20061;-62
2024/02/28 02:50:10;;;;;;;11.55;5.70;;;;;;;-144.57;100.00;62443.72;5031526;28;20442;-64
2024/02/28 02:52:36;;;;;;;15.18;5.72;;;;;;;-144.57;100.00;62443.72;5031448;28;20049;-63
2024/02/28 02:55:02;;;;;;;15.65;6.30;;;;;;;-144.57;100.00;62443.72;5046585;28;20041;-62
2024/02/28 02:57:30;;;;;;;12.32;6.30;;;;;;;-144.57;100.00;62443.72;5031253;28;20050;-62
2024/02/28 02:59:56;;;;;;;12.82;6.15;;;;;;;-144.57;100.00;62443.72;5046569;28;20075;-61
2024/02/28 03:02:22;;;;;;;12.48;6.50;;;;;;;-144.57;100.00;62443.72;5031346;28;20056;-62
2024/02/28 03:04:48;;;;;;;11.23;5.78;;;;;;;-144.57;100.00;62443.72;5046605;28;20049;-64
2024/02/28 03:07:13;;;;;;;16.50;6.65;;;;;;;-144.57;100.00;62443.72;5031040;28;20060;-61
2024/02/28 03:09:39;;;;;;;15.60;6.28;;;;;;;-144.57;100.00;62443.72;5031063;28;20050;-62
2024/02/28 03:12:05;;;;;;;12.35;6.05;;;;;;;-144.57;100.00;62443.72;5031093;28;20128;-61
2024/02/28 03:14:30;;;;;;;13.55;5.85;;;;;;;-144.57;100.00;62443.72;5028616;28;20502;-65
2024/02/28 03:16:56;;;;;;;13.25;6.00;;;;;;;-144.57;100.00;62443.72;5031017;28;20045;-63
2024/02/28 03:19:23;;;;;;;11.60;6.32;;;;;;;-144.57;100.00;62443.72;5030783;28;20493;-62
2024/02/28 03:21:49;;;;;;;12.40;6.47;;;;;;;-144.57;100.00;62443.72;5029444;28;20049;-63
2024/02/28 03:24:14;;;;;;;13.95;6.45;;;;;;;-144.57;100.00;62443.72;5030620;28;20598;-62
2024/02/28 03:26:40;;;;;;;17.60;6.43;;;;;;;-144.57;100.00;62443.72;5030984;28;20517;-62
2024/02/28 03:29:06;;;;;;;15.05;6.20;;;;;;;-144.57;100.00;62443.72;5029841;28;20136;-62
2024/02/28 03:31:32;;;;;;;16.17;5.97;;;;;;;-144.57;100.00;62443.72;5048021;28;20080;-65
2024/02/28 03:33:57;;;;;;;15.45;7.32;;;;;;;-144.57;100.00;62443.72;5034744;28;20041;-63
2024/02/28 03:36:23;;;;;;;10.93;6.35;;;;;;;-144.57;100.00;62443.72;5033089;28;20305;-64
2024/02/28 03:38:49;;;;;;;13.15;6.10;;;;;;;-144.57;100.00;62443.72;5034516;28;20128;-63
2024/02/28 03:41:14;;;;;;;14.63;6.50;;;;;;;-144.57;100.00;62443.72;5049892;28;20045;-62
2024/02/28 03:43:40;;;;;;;16.70;6.18;;;;;;;-144.57;100.00;62443.72;5033035;28;20095;-62
2024/02/28 03:46:06;;;;;;;13.63;6.20;;;;;;;-144.57;100.00;62443.72;5034161;28;20045;-64
2024/02/28 03:48:31;;;;;;;19.23;9.02;;;;;;;-144.57;100.00;62443.72;5034433;28;20073;-63
2024/02/28 03:50:57;;;;;;;11.77;6.25;;;;;;;-144.57;100.00;62443.72;5032329;28;20510;-62
2024/02/28 03:53:23;;;;;;;13.50;6.63;;;;;;;-144.57;100.00;62443.72;5016152;28;20045;-62
2024/02/28 03:55:50;;;;;;;13.45;6.10;;;;;;;-144.57;100.00;62443.72;5034096;28;20046;-62
2024/02/28 03:58:15;;;;;;;16.98;6.22;;;;;;;-144.57;100.00;62443.72;5032997;28;20049;-62
2024/02/28 04:00:44;;;;;;;14.27;6.18;;;;;;;-144.57;100.00;62443.72;5033401;28;20045;-65
2024/02/28 04:03:10;;;;;;;12.90;6.47;;;;;;;-144.57;100.00;62443.72;5032736;28;20463;-62
2024/02/28 04:05:35;;;;;;;17.38;7.40;;;;;;;-144.57;100.00;62443.72;5034513;28;20180;-64
2024/02/28 04:08:01;;;;;;;11.10;6.05;;;;;;;-144.57;100.00;62443.72;5033001;28;20072;-63
2024/02/28 04:10:26;;;;;;;13.60;6.55;;;;;;;-144.57;100.00;62443.72;5034099;28;20045;-64
2024/02/28 04:12:52;;;;;;;15.75;6.40;;;;;;;-144.57;100.00;62443.72;5034001;28;20041;-60
2024/02/28 04:15:18;;;;;;;18.30;6.03;;;;;;;-144.57;100.00;62443.72;5034142;28;20044;-65
2024/02/28 04:17:43;;;;;;;12.93;6.38;;;;;;;-144.57;100.00;62443.72;5032425;28;20049;-63
2024/02/28 04:20:11;;;;;;;15.75;7.07;;;;;;;-144.57;100.00;62443.72;5024878;28;20042;-64
2024/02/28 04:22:37;;;;;;;17.45;6.38;;;;;;;-144.57;100.00;62443.72;5034426;28;20081;-62
2024/02/28 04:25:04;;;;;;;12.88;6.45;;;;;;;-144.57;100.00;62443.72;5034989;28;20094;-62
2024/02/28 04:27:30;;;;;;;14.88;6.32;;;;;;;-144.57;100.00;62443.72;5018052;28;20049;-63
2024/02/28 04:29:55;;;;;;;12.40;6.53;;;;;;;-144.57;100.00;62443.72;5016495;28;20046;-65
2024/02/28 04:32:21;;;;;;;24.73;9.90;;;;;;;-144.57;100.00;62443.72;5015596;28;20069;-62
2024/02/28 04:34:46;;;;;;;17.70;9.15;;;;;;;-144.57;100.00;62443.72;5029340;28;20503;-64
2024/02/28 04:37:12;;;;;;;25.27;12.13;;;;;;;-144.57;100.00;62443.72;5035527;28;20049;-61
2024/02/28 04:39:38;;;;;;;35.90;16.00;;;;;;;-144.57;100.00;62443.72;5035351;28;20553;-63
2024/02/28 04:42:03;;;;;;;36.50;17.70;;;;;;;-144.57;100.00;62443.72;5032840;28;20052;-62
2024/02/28 04:44:29;;;;;;;53.85;23.67;;;;;;;-144.57;100.00;62443.72;5033207;28;20052;-63
2024/02/28 04:46:54;;;;;;;58.00;20.98;;;;;;;-144.57;100.00;62443.72;5033027;28;20045;-62
2024/02/28 04:49:20;;;;;;;39.28;19.77;;;;;;;-144.57;100.00;62443.72;5015560;28;20123;-61
2024/02/28 04:51:46;;;;;;;37.55;16.48;;;;;;;-144.57;100.00;62443.72;5034609;28;20034;-61
2024/02/28 04:54:12;;;;;;;30.70;12.43;;;;;;;-144.57;100.00;62443.72;5050201;28;20567;-62
2024/02/28 04:56:41;;;;;;;27.70;10.23;;;;;;;-144.57;100.00;62443.72;5028897;28;20167;-63
2024/02/28 04:59:08;;;;;;;18.02;8.15;;;;;;;-144.57;100.00;62443.72;5033314;28;20514;-61
2024/02/28 05:01:34;;;;;;;22.92;8.52;;;;;;;-144.57;100.00;62443.72;5048430;28;20037;-62
2024/02/28 05:04:02;;;;;;;17.00;7.65;;;;;;;-144.57;100.00;62443.72;5031386;28;20052;-62
2024/02/28 05:06:28;;;;;;;14.45;6.47;;;;;;;-144.57;100.00;62443.72;5031054;28;20065;-63
2024/02/28 05:08:53;;;;;;;13.90;6.40;;;;;;;-144.57;100.00;62443.72;5021200;28;20105;-62
2024/02/28 05:11:19;;;;;;;14.35;6.57;;;;;;;-144.57;100.00;62443.72;5023344;28;20734;-62
2024/02/28 05:13:44;;;;;;;15.13;7.28;;;;;;;-144.57;100.00;62443.72;5037802;28;20070;-64
2024/02/28 05:16:14;;;;;;;15.68;6.82;;;;;;;-144.57;100.00;62443.72;5058742;28;20052;-63
2024/02/28 05:18:40;;;;;;;13.27;7.57;;;;;;;-144.57;100.00;62443.72;5032756;28;20049;-61
2024/02/28 05:21:05;;;;;;;22.15;7.63;;;;;;;-144.57;100.00;62443.72;5023327;28;20323;-61
2024/02/28 05:23:31;;;;;;;17.30;7.53;;;;;;;-144.57;100.00;62443.72;5028117;28;20048;-63
2024/02/28 05:25:57;;;;;;;14.52;7.13;;;;;;;-144.57;100.00;62443.72;5028223;28;20072;-64
2024/02/28 05:28:23;;;;;;;14.63;6.32;;;;;;;-144.57;100.00;62443.72;5029993;28;20107;-63
2024/02/28 05:30:50;;;;;;;15.60;6.60;;;;;;;-144.57;100.00;62443.72;5032211;28;20477;-62
2024/02/28 05:33:15;;;;;;;13.48;7.15;;;;;;;-144.57;100.00;62443.72;5032864;28;20099;-62
2024/02/28 05:35:41;;;;;;;14.35;6.70;;;;;;;-144.57;100.00;62443.72;5032442;28;20506;-64
2024/02/28 05:38:06;;;;;;;13.35;6.40;;;;;;;-144.57;100.00;62443.72;5030086;28;20137;-61
2024/02/28 05:40:32;;;;;;;15.82;7.28;;;;;;;-144.57;100.00;62443.72;5021306;28;20037;-62
2024/02/28 05:42:58;;;;;;;18.88;7.10;;;;;;;-144.57;100.00;62443.72;5032562;28;20126;-63
2024/02/28 05:45:23;;;;;;;13.60;6.53;;;;;;;-144.57;100.00;62443.72;5032035;28;20034;-63
2024/02/28 05:47:49;;;;;;;14.10;6.68;;;;;;;-144.57;100.00;62443.72;5030976;28;20050;-62
2024/02/28 05:50:15;;;;;;;14.13;7.07;;;;;;;-144.57;100.00;62443.72;5032167;28;20069;-63
2024/02/28 05:52:44;;;;;;;20.23;7.13;;;;;;;-144.57;100.00;62443.72;5030578;28;20470;-63
2024/02/28 05:55:10;;;;;;;13.20;6.85;;;;;;;-144.57;100.00;62443.72;5047279;28;20039;-62
2024/02/28 05:57:35;;;;;;;17.08;7.03;;;;;;;-144.57;100.00;62443.72;5028348;28;20049;-62
2024/02/28 06:00:09;;;;;;;15.70;7.15;;;;;;;-144.57;100.00;62443.72;5009510;28;20049;-63
2024/02/28 06:02:37;;;;;;;16.73;7.00;;;;;;;-144.57;100.00;62443.72;5030797;28;20199;-64
2024/02/28 06:05:03;;;;;;;11.10;6.22;;;;;;;-144.57;100.00;62443.72;5030335;28;20037;-62
2024/02/28 06:07:29;;;;;;;18.13;6.78;;;;;;;-144.57;100.00;62443.72;5030936;28;20051;-62
2024/02/28 06:09:55;;;;;;;13.85;6.80;;;;;;;-144.57;100.00;62443.72;5030851;28;20049;-62
2024/02/28 06:12:20;;;;;;;12.98;6.60;;;;;;;-144.57;100.00;62443.72;5018818;28;20502;-62
2024/02/28 06:14:46;;;;;;;9.93;6.28;;;;;;;-144.57;100.00;62443.72;5030270;28;20048;-63
2024/02/28 06:17:12;;;;;;;17.83;7.28;;;;;;;-144.57;100.00;62443.72;5017025;28;20065;-62
2024/02/28 06:19:37;;;;;;;13.13;7.25;;;;;;;-144.57;100.00;62443.72;5030158;28;20498;-64
2024/02/28 06:22:03;;;;;;;18.08;7.22;;;;;;;-144.57;100.00;62443.72;5012726;28;20038;-62
2024/02/28 06:24:29;;;;;;;19.90;7.20;;;;;;;-144.57;100.00;62443.72;5011744;28;20155;-62
2024/02/28 06:26:55;;;;;;;19.25;8.05;;;;;;;-144.57;100.00;62443.72;5027696;28;20053;-61
2024/02/28 06:29:22;;;;;;;13.70;7.18;;;;;;;-144.57;100.00;62443.72;5031261;28;20049;-63
2024/02/28 06:31:51;;;;;;;15.60;7.22;;;;;;;-144.57;100.00;62443.72;5030954;28;20149;-63
2024/02/28 06:34:18;;;;;;;12.80;7.30;;;;;;;-144.57;100.00;62443.72;5031026;28;20503;-63
2024/02/28 06:36:44;;;;;;;15.63;7.30;;;;;;;-144.57;100.00;62443.72;5031243;28;20045;-63
2024/02/28 06:39:09;;;;;;;17.67;6.80;;;;;;;-144.57;100.00;62443.72;5031562;28;20440;-62
2024/02/28 06:41:35;;;;;;;13.45;6.47;;;;;;;-144.57;100.00;62443.72;5029539;28;20433;-63
2024/02/28 06:44:01;;;;;;;15.02;7.97;;;;;;;-144.57;100.00;62443.72;5031307;28;20045;-62
2024/02/28 06:46:26;;;;;;;12.35;6.45;;;;;;;-144.57;100.00;62443.72;5045856;28;20051;-62
2024/02/28 06:48:52;;;;;;;14.85;7.00;;;;;;;-144.57;100.00;62443.72;5030928;28;20049;-63
2024/02/28 06:51:18;;;;;;;13.02;6.93;;;;;;;-144.57;100.00;62443.72;5029649;28;20135;-63
2024/02/28 06:53:43;;;;;;;16.17;7.10;;;;;;;-144.57;100.00;62443.72;5031395;28;20077;-63
2024/02/28 06:56:09;;;;;;;12.15;6.18;;;;;;;-144.57;100.00;62443.72;5030617;28;20061;-62
2024/02/28 06:58:35;;;;;;;16.20;6.85;;;;;;;-144.57;100.00;62443.72;5029875;28;20049;-62
2024/02/28 07:01:01;;;;;;;13.43;6.93;;;;;;;-144.57;100.00;62443.72;5030612;28;20064;-65
2024/02/28 07:03:26;;;;;;;18.17;6.93;;;;;;;-144.57;100.00;62443.72;5030757;28;20140;-62
2024/02/28 07:05:53;;;;;;;12.70;6.85;;;;;;;-144.57;100.00;62443.72;5047847;28;20120;-62
2024/02/28 07:08:20;;;;;;;16.13;7.72;;;;;;;-144.57;100.00;62443.72;5032024;28;20064;-61
2024/02/28 07:10:49;;;;;;;14.23;6.75;;;;;;;-144.57;100.00;62443.72;5033358;28;20033;-61
2024/02/28 07:13:15;;;;;;;14.45;7.70;;;;;;;-144.57;100.00;62443.72;5035238;28;20049;-62
2024/02/28 07:15:41;;;;;;;14.23;7.03;;;;;;;-144.57;100.00;62443.72;5050343;28;20348;-62
2024/02/28 07:18:07;;;;;;;17.23;7.18;;;;;;;-144.57;100.00;62443.72;5035055;28;20124;-62
2024/02/28 07:20:33;;;;;;;13.23;7.70;;;;;;;-144.57;100.00;62443.72;5033358;28;20141;-63
2024/02/28 07:22:59;;;;;;;16.13;6.88;;;;;;;-144.57;100.00;62443.72;5016883;28;20610;-61
2024/02/28 07:25:25;;;;;;;15.65;7.35;;;;;;;-144.57;100.00;62443.72;5030246;28;20067;-62
2024/02/28 07:27:51;;;;;;;13.70;6.18;;;;;;;-144.57;100.00;62443.72;5014545;28;20042;-62
2024/02/28 07:30:17;;;;;;;13.00;6.63;;;;;;;-144.57;100.00;62443.72;5032102;28;20065;-62
2024/02/28 07:32:42;;;;;;;16.88;7.47;;;;;;;-144.57;100.00;62443.72;5033220;28;20044;-61
2024/02/28 07:35:08;;;;;;;14.68;7.38;;;;;;;-144.57;100.00;62443.72;5034410;28;20041;-63
2024/02/28 07:37:34;;;;;;;13.35;6.78;;;;;;;-144.57;100.00;62443.72;5033357;28;20119;-63
2024/02/28 07:39:59;;;;;;;12.82;7.28;;;;;;;-144.57;100.00;62443.72;5016378;28;20406;-63
2024/02/28 07:42:25;;;;;;;14.32;6.93;;;;;;;-144.57;100.00;62443.72;5049774;28;20545;-62
2024/02/28 07:44:56;;;;;;;13.60;7.05;;;;;;;-144.57;100.00;62443.72;5032989;28;20041;-60
2024/02/28 07:47:23;;;;;;;14.20;7.35;;;;;;;-144.57;100.00;62443.72;5049187;28;20050;-61
2024/02/28 07:49:48;;;;;;;14.50;8.07;;;;;;;-144.57;100.00;62443.72;5033880;28;20049;-62
2024/02/28 07:52:14;;;;;;;10.75;6.82;;;;;;;-144.57;100.00;62443.72;5033729;28;20549;-62
2024/02/28 07:54:45;;;;;;;13.65;7.05;;;;;;;-144.57;100.00;62443.72;5034176;28;20076;-63
2024/02/28 07:57:12;;;;;;;15.18;7.28;;;;;;;-144.57;100.00;62443.72;5034178;28;20459;-62
2024/02/28 07:59:42;;;;;;;15.05;7.28;;;;;;;-144.57;100.00;62443.72;5033389;28;20116;-62
2024/02/28 08:02:08;;;;;;;15.18;7.65;;;;;;;-144.57;100.00;62443.72;5032176;28;20076;-61
2024/02/28 08:04:34;;;;;;;16.05;7.00;;;;;;;-144.57;100.00;62443.72;5033863;28;20101;-61
2024/02/28 08:07:00;;;;;;;14.50;6.97;;;;;;;-144.57;100.00;62443.72;5033019;28;20045;-61
2024/02/28 08:09:25;;;;;;;13.02;7.38;;;;;;;-144.57;100.00;62443.72;5033300;28;20053;-62
2024/02/28 08:11:51;;;;;;;15.68;7.45;;;;;;;-144.57;100.00;62443.72;5032065;28;20029;-62
2024/02/28 08:14:17;;;;;;;14.45;7.25;;;;;;;-144.57;100.00;62443.72;5033212;28;20526;-62
2024/02/28 08:16:43;;;;;;;15.38;7.28;;;;;;;-144.57;100.00;62443.72;5032179;28;20048;-62
2024/02/28 08:19:09;;;;;;;14.30;7.00;;;;;;;-144.57;100.00;62443.72;5032379;28;20049;-62
2024/02/28 08:21:34;;;;;;;14.43;7.68;;;;;;;-144.57;100.00;62443.72;5019407;28;20049;-63
2024/02/28 08:24:04;;;;;;;15.13;7.13;;;;;;;-144.57;100.00;62443.72;5014275;28;20390;-62
2024/02/28 08:26:33;;;;;;;14.85;7.35;;;;;;;-144.57;100.00;62443.72;5026917;28;20103;-63
2024/02/28 08:28:59;;;;;;;21.50;7.47;;;;;;;-144.57;100.00;62443.72;5031534;28;20052;-64
2024/02/28 08:31:24;;;;;;;16.02;7.47;;;;;;;-144.57;100.00;62443.72;5031986;28;20042;-62
2024/02/28 08:33:50;;;;;;;21.45;7.90;;;;;;;-144.57;100.00;62443.72;5033786;28;20041;-63
2024/02/28 08:36:16;;;;;;;18.67;7.78;;;;;;;-144.57;100.00;62443.72;5031968;28;20037;-64
2024/02/28 08:38:42;;;;;;;15.05;7.22;;;;;;;-144.57;100.00;62443.72;5015548;28;20080;-63
2024/02/28 08:41:08;;;;;;;16.42;8.05;;;;;;;-144.57;100.00;62443.72;5031662;28;20037;-66
2024/02/28 08:43:40;;;;;;;15.63;7.63;;;;;;;-144.57;100.00;62443.72;5032050;28;20041;-67
2024/02/28 08:46:15;;;;;;;13.25;7.68;;;;;;;-144.57;100.00;62443.72;5032162;28;20041;-63
2024/02/28 08:48:42;;;;;;;18.15;8.27;;;;;;;-144.57;100.00;62443.72;5016093;28;20099;-64
2024/02/28 08:51:08;;;;;;;10.80;6.70;;;;;;;-144.57;100.00;62443.72;5049069;28;20048;-63
2024/02/28 08:53:34;;;;;;;17.52;7.38;;;;;;;-144.57;100.00;62443.72;5032339;28;20041;-65
2024/02/28 08:56:01;;;;;;;13.60;7.30;;;;;;;-144.57;100.00;62443.72;5033603;28;20049;-63
2024/02/28 08:58:27;;;;;;;16.13;7.35;;;;;;;-144.57;100.00;62443.72;5031096;28;20068;-64
2024/02/28 09:00:55;;;;;;;23.48;8.15;;;;;;;-144.57;100.00;62443.72;5023747;28;20061;-64
2024/02/28 09:03:22;;;;;;;15.25;6.95;;;;;;;-144.57;100.00;62443.72;5033503;28;20179;-65
2024/02/28 09:05:48;;;;;;;18.80;7.53;;;;;;;-144.57;100.00;62443.72;4999054;28;20048;-64
2024/02/28 09:08:14;;;;;;;14.25;7.07;;;;;;;-144.57;100.00;62443.72;5032742;28;20042;-62
2024/02/28 09:10:40;;;;;;;15.70;7.55;;;;;;;-144.57;100.00;62443.72;5026759;28;20037;-62
2024/02/28 09:13:06;;;;;;;15.02;7.00;;;;;;;-144.57;100.00;62443.72;5011996;28;20061;-63
2024/02/28 09:15:34;;;;;;;15.48;7.28;;;;;;;-144.57;100.00;62443.72;5018094;28;20124;-64
2024/02/28 09:18:01;;;;;;;14.88;7.15;;;;;;;-144.57;100.00;62443.72;5031720;28;20407;-62
2024/02/28 09:20:26;;;;;;;18.63;7.88;;;;;;;-144.57;100.00;62443.72;5027920;28;20037;-63
2024/02/28 09:22:52;;;;;;;18.23;8.00;;;;;;;-144.57;100.00;62443.72;5011618;28;20570;-62
2024/02/28 09:25:18;;;;;;;15.65;7.35;;;;;;;-144.57;100.00;62443.72;5012689;28;20046;-64
2024/02/28 09:27:44;;;;;;;13.30;7.68;;;;;;;-144.57;100.00;62443.72;5011021;28;20045;-60
2024/02/28 09:30:10;;;;;;;18.40;8.52;;;;;;;-144.57;100.00;62443.72;5012319;28;20049;-60
2024/02/28 09:32:35;;;;;;;15.60;8.15;;;;;;;-144.57;100.00;62443.72;5018807;28;20047;-61
2024/02/28 09:35:04;;;;;;;17.90;8.02;;;;;;;-144.57;100.00;62443.72;5031644;28;20064;-63
2024/02/28 09:37:30;;;;;;;16.75;7.53;;;;;;;-144.57;100.00;62443.72;5030383;28;20103;-63
2024/02/28 09:39:55;;;;;;;16.77;7.93;;;;;;;-144.57;100.00;62443.72;5030828;28;20041;-63
2024/02/28 09:42:21;;;;;;;15.27;7.57;;;;;;;-144.57;100.00;62443.72;5011885;28;20420;-62
2024/02/28 09:44:46;;;;;;;19.02;7.47;;;;;;;-144.57;100.00;62443.72;5010912;28;20057;-61
2024/02/28 09:47:13;;;;;;;13.35;7.22;;;;;;;-144.57;100.00;62443.72;5013886;28;20481;-62
2024/02/28 09:49:39;;;;;;;14.20;8.00;;;;;;;-144.57;100.00;62443.72;5031988;28;20570;-62
2024/02/28 09:52:05;;;;;;;13.23;7.28;;;;;;;-144.57;100.00;62443.72;5012501;28;20144;-63
2024/02/28 09:54:30;;;;;;;15.77;7.63;;;;;;;-144.57;100.00;62443.72;5010819;28;20132;-63
2024/02/28 09:56:56;;;;;;;19.15;7.03;;;;;;;-144.57;100.00;62443.72;5028434;28;20045;-63
2024/02/28 09:59:23;;;;;;;16.52;7.13;;;;;;;-144.57;100.00;62443.72;5047555;28;20049;-61
2024/02/28 10:02:09;;;;;;;19.20;7.97;;;;;;;-144.57;100.00;62443.72;5030287;28;20049;-64
2024/02/28 10:04:36;;;;;;;15.35;7.07;;;;;;;-144.57;100.00;62443.72;5047342;28;20051;-63
2024/02/28 10:07:14;;;;;;;16.80;7.13;;;;;;;-144.57;100.00;62443.72;5030292;28;20041;-63
2024/02/28 10:09:43;;;;;;;15.88;7.65;;;;;;;-144.57;100.00;62443.72;5030251;28;20060;-63
2024/02/28 10:12:09;;;;;;;15.43;8.07;;;;;;;-144.57;100.00;62443.72;5031373;28;20049;-63
2024/02/28 10:14:34;;;;;;;15.10;7.43;;;;;;;-144.57;100.00;62443.72;5030003;28;20457;-62
2024/02/28 10:17:00;;;;;;;13.95;7.40;;;;;;;-144.57;100.00;62443.72;5046167;28;20074;-63
2024/02/28 10:19:26;;;;;;;16.60;8.27;;;;;;;-144.57;100.00;62443.72;5029700;28;20041;-63
2024/02/28 10:21:52;;;;;;;17.05;7.45;;;;;;;-144.57;100.00;62443.72;5030557;28;20077;-63
2024/02/28 10:24:18;;;;;;;15.10;7.65;;;;;;;-144.57;100.00;62443.72;5029863;28;20072;-64
2024/02/28 10:26:56;;;;;;;13.88;7.40;;;;;;;-144.57;100.00;62443.72;5030164;28;20049;-64
2024/02/28 10:29:24;;;;;;;12.75;7.22;;;;;;;-144.57;100.00;62443.72;5031246;28;20084;-61
2024/02/28 10:31:49;;;;;;;15.70;7.50;;;;;;;-144.57;100.00;62443.72;5031499;28;20052;-61
2024/02/28 10:34:17;;;;;;;14.73;7.78;;;;;;;-144.57;100.00;62443.72;5029685;28;20053;-63
2024/02/28 10:36:43;;;;;;;17.55;7.68;;;;;;;-144.57;100.00;62443.72;5031597;28;20045;-63
2024/02/28 10:39:10;;;;;;;13.75;7.80;;;;;;;-144.57;100.00;62443.72;5031144;28;20045;-60
2024/02/28 10:41:38;;;;;;;12.40;6.93;;;;;;;-144.57;100.00;62443.72;5030365;28;20049;-63
2024/02/28 10:44:04;;;;;;;15.10;7.28;;;;;;;-144.57;100.00;62443.72;5031466;28;20041;-61
2024/02/28 10:46:31;;;;;;;12.88;7.10;;;;;;;-144.57;100.00;62443.72;5030168;28;20042;-65
2024/02/28 10:48:57;;;;;;;20.02;8.13;;;;;;;-144.57;100.00;62443.72;5031019;28;20048;-63
2024/02/28 10:51:26;;;;;;;11.43;7.40;;;;;;;-144.57;100.00;62443.72;5030134;28;20091;-62
2024/02/28 10:54:12;;;;;;;13.20;7.57;;;;;;;-144.57;100.00;62443.72;5029900;28;20049;-63
2024/02/28 10:56:39;;;;;;;11.57;7.07;;;;;;;-144.57;100.00;62443.72;5031065;28;20648;-63
2024/02/28 10:59:09;;;;;;;14.25;7.75;;;;;;;-144.57;100.00;62443.72;5031307;28;20049;-63